createdAt,value
2023-05-05T00:01:41.333Z,102213.59
2023-05-05T00:04:11.574Z,102250.22
2023-05-05T00:06:41.806Z,102235.34
2023-05-05T00:09:11.894Z,102253.72
2023-05-05T00:11:41.987Z,102258.03
2023-05-05T00:14:12.178Z,102256.31
2023-05-05T00:16:42.575Z,102248.47
2023-05-05T00:19:12.849Z,102245.78
2023-05-05T00:21:43.028Z,102252.75
2023-05-05T00:24:13.115Z,102231.66
2023-05-05T00:26:43.241Z,102237.81
2023-05-05T00:29:13.351Z,102249.09
2023-05-05T00:31:43.568Z,102246.44
2023-05-05T00:34:13.718Z,102235.09
2023-05-05T00:36:43.989Z,102243.03
2023-05-05T00:39:14.410Z,102242.19
2023-05-05T00:41:44.612Z,102244.78
2023-05-05T00:44:15.839Z,102236.91
2023-05-05T00:46:46.158Z,102240.28
2023-05-05T00:49:16.586Z,102245.41
2023-05-05T00:51:46.825Z,102247.97
2023-05-05T00:54:17.180Z,102238.41
2023-05-05T00:56:48.312Z,102217.25
2023-05-05T00:59:18.576Z,102240.88
2023-05-05T01:01:48.763Z,102235.63
2023-05-05T01:04:19.003Z,102221.75
2023-05-05T01:07:12.518Z,102239.28
2023-05-05T01:10:15.142Z,102240.16
2023-05-05T01:13:03.882Z,102233.97
2023-05-05T01:15:41.832Z,102219.81
2023-05-05T01:18:14.118Z,102230.38
2023-05-05T01:21:10.232Z,102241.66
2023-05-05T01:24:05.117Z,102245.88
2023-05-05T01:26:35.277Z,102244.97
2023-05-05T01:29:11.110Z,102245.88
2023-05-05T01:31:55.275Z,102247.66
2023-05-05T01:34:34.728Z,102237.16
2023-05-05T01:37:12.715Z,102252.94
2023-05-05T01:39:45.743Z,102233.59
2023-05-05T01:42:18.768Z,102249.44
2023-05-05T01:44:50.053Z,102253.88
2023-05-05T01:47:22.454Z,102253.84
2023-05-05T01:49:52.993Z,102252.06
2023-05-05T01:52:24.517Z,102251.16
2023-05-05T01:54:56.793Z,102250.31
2023-05-05T01:57:31.462Z,102251.97
2023-05-05T02:00:04.759Z,102244.94
2023-05-05T02:02:36.307Z,102255.41
2023-05-05T02:05:07.432Z,102232.63
2023-05-05T02:07:38.537Z,102256.09
2023-05-05T02:10:10.670Z,102243.75
2023-05-05T02:12:43.124Z,102267.41
2023-05-05T02:15:15.326Z,102262.25
2023-05-05T02:17:47.399Z,102263.97
2023-05-05T02:20:19.331Z,102236.91
2023-05-05T02:22:49.712Z,102218.41
2023-05-05T02:25:20.433Z,102243.78
2023-05-05T02:27:56.815Z,102249.06
2023-05-05T02:30:29.168Z,102255.03
2023-05-05T02:33:07.622Z,102254.88
2023-05-05T02:35:42.342Z,102260.94
2023-05-05T02:38:17.968Z,102266.09
2023-05-05T02:40:51.000Z,102269.34
2023-05-05T02:43:24.251Z,102276.19
2023-05-05T02:45:54.534Z,102271.78
2023-05-05T02:48:24.725Z,102264.78
2023-05-05T02:50:54.868Z,102266.41
2023-05-05T02:53:27.017Z,102273.19
2023-05-05T02:56:16.865Z,102272.22
2023-05-05T02:59:16.362Z,102281.97
2023-05-05T03:01:54.931Z,102278.44
2023-05-05T03:04:37.594Z,102250.34
2023-05-05T03:07:14.508Z,102268.47
2023-05-05T03:09:55.964Z,102277.28
2023-05-05T03:12:30.638Z,102289.47
2023-05-05T03:15:02.478Z,102282.47
2023-05-05T03:17:34.000Z,102266.75
2023-05-05T03:20:07.653Z,102293.84
2023-05-05T03:22:38.060Z,102298.09
2023-05-05T03:25:08.720Z,102297.22
2023-05-05T03:27:38.841Z,102273.56
2023-05-05T03:30:09.820Z,102292.88
2023-05-05T03:32:40.309Z,102298.81
2023-05-05T03:35:10.451Z,102286.47
2023-05-05T03:37:40.678Z,102290.72
2023-05-05T03:40:11.259Z,102286.31
2023-05-05T03:42:41.977Z,102301.13
2023-05-05T03:45:13.026Z,102290.53
2023-05-05T03:47:43.410Z,102288.50
2023-05-05T03:50:13.675Z,102296.31
2023-05-05T03:52:43.844Z,102300.16
2023-05-05T03:55:13.954Z,102304.69
2023-05-05T03:57:46.100Z,102311.75
2023-05-05T04:00:16.627Z,102309.22
2023-05-05T04:02:46.864Z,102297.81
2023-05-05T04:05:17.062Z,102313.50
2023-05-05T04:07:47.212Z,102285.16
2023-05-05T04:10:17.383Z,102304.19
2023-05-05T04:12:47.442Z,102318.19
2023-05-05T04:15:17.668Z,102333.91
2023-05-05T04:20:26.632Z,102323.44
2023-05-05T04:22:56.748Z,102332.97
2023-05-05T04:25:26.926Z,102337.44
2023-05-05T04:27:57.084Z,102339.22
2023-05-05T04:30:27.229Z,102340.94
2023-05-05T04:32:57.344Z,102334.81
2023-05-05T04:35:27.476Z,102351.41
2023-05-05T04:37:57.629Z,102352.28
2023-05-05T04:40:27.764Z,102344.31
2023-05-05T04:42:58.324Z,102346.78
2023-05-05T04:45:28.415Z,102345.88
2023-05-05T04:47:58.687Z,102351.34
2023-05-05T04:50:28.829Z,102354.94
2023-05-05T04:52:59.053Z,102362.66
2023-05-05T04:55:29.321Z,102366.94
2023-05-05T04:57:59.570Z,102374.91
2023-05-05T05:00:29.843Z,102381.00
2023-05-05T05:03:01.171Z,102377.50
2023-05-05T05:05:31.365Z,102373.06
2023-05-05T05:08:01.506Z,102387.00
2023-05-05T05:10:31.765Z,102378.16
2023-05-05T05:13:02.371Z,102393.75
2023-05-05T05:15:32.635Z,102392.84
2023-05-05T05:18:02.879Z,102397.25
2023-05-05T05:20:33.162Z,102396.31
2023-05-05T05:23:04.641Z,102402.63
2023-05-05T05:25:34.776Z,102405.22
2023-05-05T05:28:09.441Z,102410.34
2023-05-05T05:30:40.241Z,102398.16
2023-05-05T05:33:11.728Z,102398.06
2023-05-05T05:35:41.873Z,102408.53
2023-05-05T05:38:12.051Z,102396.25
2023-05-05T05:40:42.504Z,102403.41
2023-05-05T05:43:12.866Z,102418.28
2023-05-05T05:45:43.454Z,102405.91
2023-05-05T05:48:13.648Z,102411.34
2023-05-05T05:50:47.029Z,102406.81
2023-05-05T05:53:18.109Z,102420.22
2023-05-05T05:55:48.390Z,102415.84
2023-05-05T05:58:18.654Z,102420.13
2023-05-05T06:00:49.310Z,102404.41
2023-05-05T06:03:19.573Z,102416.72
2023-05-05T06:05:50.681Z,102411.69
2023-05-05T06:08:21.671Z,102426.84
2023-05-05T06:10:53.014Z,102425.94
2023-05-05T06:13:23.310Z,102409.44
2023-05-05T06:15:53.437Z,102420.09
2023-05-05T06:18:23.726Z,102421.03
2023-05-05T06:20:53.852Z,102402.91
2023-05-05T06:23:24.658Z,102431.13
2023-05-05T06:25:55.819Z,102426.81
2023-05-05T06:28:26.170Z,102430.34
2023-05-05T06:30:56.675Z,102436.72
2023-05-05T06:33:26.957Z,102435.22
2023-05-05T06:35:57.100Z,102435.31
2023-05-05T06:38:27.183Z,102435.59
2023-05-05T06:40:58.695Z,102448.84
2023-05-05T06:43:29.747Z,102445.41
2023-05-05T06:45:59.955Z,102437.75
2023-05-05T06:48:30.099Z,102435.25
2023-05-05T06:51:00.304Z,102442.47
2023-05-05T06:53:30.509Z,102450.41
2023-05-05T06:56:00.670Z,102445.31
2023-05-05T06:58:31.902Z,102443.66
2023-05-05T07:01:02.239Z,102438.56
2023-05-05T07:03:32.509Z,102427.22
2023-05-05T07:06:03.806Z,102444.09
2023-05-05T07:08:33.935Z,102446.84
2023-05-05T07:11:04.164Z,102439.09
2023-05-05T07:13:34.235Z,102432.28
2023-05-05T07:16:05.112Z,102436.81
2023-05-05T07:18:35.309Z,102440.38
2023-05-05T07:21:06.823Z,102440.47
2023-05-05T07:23:38.097Z,102427.44
2023-05-05T07:26:08.498Z,102434.56
2023-05-05T07:28:38.736Z,102424.06
2023-05-05T07:31:09.203Z,102436.47
2023-05-05T07:33:39.333Z,102440.78
2023-05-05T07:36:09.497Z,102432.91
2023-05-05T07:38:39.865Z,102440.81
2023-05-05T07:41:13.150Z,102436.44
2023-05-05T07:43:44.612Z,102442.72
2023-05-05T07:46:15.608Z,102448.97
2023-05-05T07:48:46.024Z,102449.94
2023-05-05T07:51:16.373Z,102437.56
2023-05-05T07:53:46.563Z,102451.66
2023-05-05T07:56:16.707Z,102454.31
2023-05-05T07:58:46.932Z,102454.38
2023-05-05T08:01:17.141Z,102456.22
2023-05-05T08:03:47.473Z,102464.13
2023-05-05T08:06:22.339Z,102470.31
2023-05-05T08:08:53.586Z,102460.88
2023-05-05T08:11:23.907Z,102469.72
2023-05-05T08:13:54.022Z,102437.44
2023-05-05T08:16:24.438Z,102449.84
2023-05-05T08:18:54.599Z,102450.78
2023-05-05T08:21:24.847Z,102472.69
2023-05-05T08:23:55.065Z,102436.84
2023-05-05T08:26:25.333Z,102455.28
2023-05-05T08:29:02.744Z,102460.59
2023-05-05T08:31:34.222Z,102461.50
2023-05-05T08:34:07.729Z,102459.75
2023-05-05T08:36:38.008Z,102463.41
2023-05-05T08:39:08.735Z,102439.81
2023-05-05T08:41:40.655Z,102460.88
2023-05-05T08:44:13.537Z,102431.13
2023-05-05T08:46:44.105Z,102454.84
2023-05-05T08:49:16.570Z,102460.97
2023-05-05T08:51:47.624Z,102455.78
2023-05-05T08:54:27.055Z,102456.72
2023-05-05T08:57:02.286Z,102464.59
2023-05-05T08:59:33.578Z,102448.00
2023-05-05T09:02:05.525Z,102470.78
2023-05-05T09:04:36.535Z,102458.59
2023-05-05T09:07:07.004Z,102459.47
2023-05-05T09:09:38.623Z,102463.00
2023-05-05T09:12:08.847Z,102451.66
2023-05-05T09:17:29.047Z,102464.84
2023-05-05T09:20:07.960Z,102446.47
2023-05-05T09:22:39.308Z,102471.88
2023-05-05T09:25:12.226Z,102462.28
2023-05-05T09:27:47.364Z,102459.66
2023-05-05T09:30:23.837Z,102463.13
2023-05-05T09:32:54.844Z,102468.41
2023-05-05T09:35:25.947Z,102468.41
2023-05-05T09:37:56.059Z,102448.28
2023-05-05T09:40:26.309Z,102457.91
2023-05-05T09:43:02.653Z,102468.38
2023-05-05T09:45:32.785Z,102467.50
2023-05-05T09:48:02.999Z,102457.00
2023-05-05T09:50:44.020Z,102459.59
2023-05-05T09:53:14.505Z,102468.38
2023-05-05T09:56:01.679Z,102452.56
2023-05-05T09:58:32.104Z,102456.97
2023-05-05T10:01:02.254Z,102446.50
2023-05-05T10:03:33.429Z,102456.03
2023-05-05T10:06:04.803Z,102447.25
2023-05-05T10:08:35.032Z,102443.75
2023-05-05T10:11:07.093Z,102453.34
2023-05-05T10:13:41.187Z,102441.03
2023-05-05T10:16:13.380Z,102464.59
2023-05-05T10:18:46.912Z,102461.94
2023-05-05T10:21:20.756Z,102450.56
2023-05-05T10:24:22.828Z,102453.13
2023-05-05T10:26:54.364Z,102450.47
2023-05-05T10:29:28.582Z,102444.28
2023-05-05T10:32:21.418Z,102448.69
2023-05-05T10:35:02.913Z,102435.53
2023-05-05T10:37:33.866Z,102438.13
2023-05-05T10:40:05.321Z,102445.09
2023-05-05T10:42:39.695Z,102440.66
2023-05-05T10:45:10.264Z,102433.66
2023-05-05T10:47:40.924Z,102429.25
2023-05-05T10:50:28.159Z,102415.31
2023-05-05T10:53:36.056Z,102445.75
2023-05-05T10:56:09.989Z,102442.97
2023-05-05T10:58:58.228Z,102440.34
2023-05-05T11:01:34.693Z,102439.44
2023-05-05T11:04:21.829Z,102438.53
2023-05-05T11:07:18.666Z,102440.19
2023-05-05T11:10:15.999Z,102438.38
2023-05-05T11:12:52.709Z,102436.59
2023-05-05T11:15:29.250Z,102442.75
2023-05-05T11:18:05.799Z,102441.88
2023-05-05T11:20:37.288Z,102440.09
2023-05-05T11:23:07.546Z,102436.56
2023-05-05T11:25:38.983Z,102439.13
2023-05-05T11:28:10.881Z,102445.19
2023-05-05T11:30:59.501Z,102433.66
2023-05-05T11:33:32.145Z,102435.25
2023-05-05T11:36:08.966Z,102424.72
2023-05-05T11:38:39.073Z,102433.47
2023-05-05T11:41:33.618Z,102427.22
2023-05-05T11:44:17.646Z,102419.31
2023-05-05T11:46:50.830Z,102428.25
2023-05-05T11:49:27.739Z,102426.47
2023-05-05T11:51:59.448Z,102421.94
2023-05-05T11:54:30.645Z,102419.13
2023-05-05T11:57:08.670Z,102423.22
2023-05-05T11:59:57.693Z,102420.34
2023-05-05T12:02:29.972Z,102414.13
2023-05-05T12:05:01.066Z,102408.00
2023-05-05T12:07:33.556Z,102431.50
2023-05-05T12:10:04.006Z,102433.16
2023-05-05T12:12:40.201Z,102418.88
2023-05-05T12:15:10.552Z,102428.81
2023-05-05T12:17:45.115Z,102409.91
2023-05-05T12:20:15.590Z,102431.38
2023-05-05T12:22:45.848Z,102407.94
2023-05-05T12:25:16.386Z,102411.78
2023-05-05T12:27:55.685Z,102423.34
2023-05-05T12:30:25.980Z,102413.47
2023-05-05T12:33:04.081Z,102426.41
2023-05-05T12:35:35.200Z,102417.75
2023-05-05T12:38:05.490Z,102416.03
2023-05-05T12:41:02.830Z,102407.78
2023-05-05T12:43:34.883Z,102406.72
2023-05-05T12:46:10.747Z,102410.53
2023-05-05T12:48:45.700Z,102398.75
2023-05-05T12:51:23.646Z,102410.84
2023-05-05T12:54:10.368Z,102410.28
2023-05-05T12:56:45.674Z,102399.03
2023-05-05T12:59:21.845Z,102414.53
2023-05-05T13:01:54.198Z,102404.13
2023-05-05T13:04:27.514Z,102413.81
2023-05-05T13:07:14.941Z,102400.69
2023-05-05T13:09:45.481Z,102378.53
2023-05-05T13:12:19.013Z,102402.97
2023-05-05T13:14:49.201Z,102388.84
2023-05-05T13:17:19.486Z,102398.44
2023-05-05T13:19:49.791Z,102386.78
2023-05-05T13:22:20.056Z,102391.69
2023-05-05T13:24:52.792Z,102384.38
2023-05-05T13:27:23.878Z,102381.19
2023-05-05T13:29:57.324Z,102386.56
2023-05-05T13:32:29.224Z,102387.06
2023-05-05T13:34:59.725Z,102393.16
2023-05-05T13:37:31.891Z,102389.81
2023-05-05T13:40:07.833Z,102378.69
2023-05-05T13:42:41.611Z,102386.81
2023-05-05T13:45:12.631Z,102384.13
2023-05-05T13:47:45.867Z,102373.09
2023-05-05T13:50:17.218Z,102378.00
2023-05-05T13:52:47.794Z,102367.84
2023-05-05T13:55:18.912Z,102373.75
2023-05-05T13:57:52.388Z,102369.09
2023-05-05T14:00:23.717Z,102358.94
2023-05-05T14:02:54.850Z,102354.81
2023-05-05T14:05:26.403Z,102346.22
2023-05-05T14:07:56.963Z,102350.25
2023-05-05T14:10:30.365Z,102348.16
2023-05-05T14:13:00.994Z,102347.69
2023-05-05T14:15:32.151Z,102352.84
2023-05-05T14:18:02.879Z,102352.81
2023-05-05T14:20:34.553Z,102352.00
2023-05-05T14:23:04.902Z,102353.44
2023-05-05T14:25:35.865Z,102362.25
2023-05-05T14:28:07.021Z,102332.28
2023-05-05T14:30:37.647Z,102355.50
2023-05-05T14:33:08.154Z,102353.09
2023-05-05T14:35:38.735Z,102364.00
2023-05-05T14:38:10.477Z,102366.38
2023-05-05T14:40:40.906Z,102357.63
2023-05-05T14:43:12.653Z,102362.69
2023-05-05T14:45:44.666Z,102359.00
2023-05-05T14:48:17.305Z,102361.31
2023-05-05T14:50:49.016Z,102370.91
2023-05-05T14:53:19.858Z,102359.75
2023-05-05T14:55:50.478Z,102368.03
2023-05-05T14:58:22.601Z,102362.69
2023-05-05T15:00:54.802Z,102358.91
2023-05-05T15:03:25.470Z,102355.50
2023-05-05T15:05:57.154Z,102357.72
2023-05-05T15:08:27.616Z,102349.22
2023-05-05T15:10:58.311Z,102362.34
2023-05-05T15:13:30.203Z,102361.09
2023-05-05T15:16:06.086Z,102370.09
2023-05-05T15:18:36.577Z,102365.69
2023-05-05T15:21:06.802Z,102350.75
2023-05-05T15:23:37.230Z,102338.25
2023-05-05T15:26:07.379Z,102356.97
2023-05-05T15:28:38.130Z,102362.72
2023-05-05T15:31:11.469Z,102365.78
2023-05-05T15:33:42.752Z,102347.56
2023-05-05T15:36:13.303Z,102356.19
2023-05-05T15:38:43.994Z,102339.69
2023-05-05T15:41:14.512Z,102356.72
2023-05-05T15:43:44.970Z,102349.34
2023-05-05T15:46:16.134Z,102355.13
2023-05-05T15:48:46.935Z,102343.38
2023-05-05T15:51:17.592Z,102348.94
2023-05-05T15:53:48.384Z,102338.25
2023-05-05T15:56:18.959Z,102345.59
2023-05-05T15:58:51.688Z,102342.34
2023-05-05T16:01:22.432Z,102337.25
2023-05-05T16:03:53.048Z,102345.28
2023-05-05T16:06:23.817Z,102333.28
2023-05-05T16:08:54.047Z,102350.88
2023-05-05T16:11:26.495Z,102331.75
2023-05-05T16:13:57.266Z,102344.38
2023-05-05T16:16:27.852Z,102341.03
2023-05-05T16:18:59.315Z,102319.47
2023-05-05T16:21:30.494Z,102327.53
2023-05-05T16:24:01.528Z,102314.59
2023-05-05T16:26:33.369Z,102334.81
2023-05-05T16:29:04.312Z,102336.59
2023-05-05T16:31:35.741Z,102336.69
2023-05-05T16:34:06.382Z,102328.91
2023-05-05T16:36:37.738Z,102324.56
2023-05-05T16:39:08.163Z,102331.59
2023-05-05T16:41:38.362Z,102320.28
2023-05-05T16:44:08.641Z,102306.41
2023-05-05T16:46:40.228Z,102315.19
2023-05-05T16:49:10.488Z,102304.75
2023-05-05T16:51:40.972Z,102309.13
2023-05-05T16:54:11.158Z,102315.28
2023-05-05T16:56:41.357Z,102308.28
2023-05-05T16:59:11.669Z,102324.91
2023-05-05T17:01:43.525Z,102323.16
2023-05-05T17:04:13.865Z,102312.66
2023-05-05T17:06:44.067Z,102306.59
2023-05-05T17:09:14.279Z,102295.19
2023-05-05T17:11:44.512Z,102303.94
2023-05-05T17:14:14.695Z,102314.41
2023-05-05T17:16:44.933Z,102317.00
2023-05-05T17:19:15.193Z,102301.25
2023-05-05T17:21:45.488Z,102324.78
2023-05-05T17:24:15.743Z,102323.03
2023-05-05T17:26:45.951Z,102323.00
2023-05-05T17:29:19.931Z,102328.19
2023-05-05T17:31:50.864Z,102329.00
2023-05-05T17:34:21.170Z,102335.09
2023-05-05T17:36:51.281Z,102337.69
2023-05-05T17:39:21.376Z,102339.34
2023-05-05T17:41:51.870Z,102320.06
2023-05-05T17:44:22.114Z,102333.16
2023-05-05T17:46:52.336Z,102322.69
2023-05-05T17:49:22.783Z,102333.97
2023-05-05T17:51:52.879Z,102329.50
2023-05-05T17:54:23.047Z,102310.97
2023-05-05T17:56:53.404Z,102331.13
2023-05-05T17:59:23.682Z,102325.69
2023-05-05T18:01:53.749Z,102332.66
2023-05-05T18:04:24.121Z,102340.53
2023-05-05T18:06:57.223Z,102343.13
2023-05-05T18:09:27.556Z,102319.38
2023-05-05T18:11:57.844Z,102328.94
2023-05-05T18:14:28.042Z,102343.81
2023-05-05T18:16:58.201Z,102336.78
2023-05-05T18:19:28.467Z,102344.59
2023-05-05T18:21:59.204Z,102337.38
2023-05-05T18:24:29.649Z,102315.34
2023-05-05T18:26:59.828Z,102344.16
2023-05-05T18:29:29.947Z,102358.16
2023-05-05T18:32:00.253Z,102340.59
2023-05-05T18:34:30.517Z,102357.94
2023-05-05T18:37:00.730Z,102342.09
2023-05-05T18:39:30.930Z,102353.53
2023-05-05T18:42:04.044Z,102359.66
2023-05-05T18:44:35.123Z,102356.06
2023-05-05T18:47:05.338Z,102369.16
2023-05-05T18:49:35.529Z,102359.44
2023-05-05T18:52:05.673Z,102364.63
2023-05-05T18:54:37.821Z,102362.88
2023-05-05T18:57:08.280Z,102346.88
2023-05-05T18:59:38.495Z,102373.06
2023-05-05T19:02:08.775Z,102363.38
2023-05-05T19:04:41.478Z,102356.34
2023-05-05T19:07:18.410Z,102353.63
2023-05-05T19:09:54.157Z,102358.81
2023-05-05T19:12:24.296Z,102340.41
2023-05-05T19:14:54.500Z,102346.59
2023-05-05T19:17:24.802Z,102321.94
2023-05-05T19:19:54.985Z,102349.16
2023-05-05T19:22:25.616Z,102337.66
2023-05-05T19:24:55.833Z,102345.41
2023-05-05T19:27:26.078Z,102348.03
2023-05-05T19:29:56.298Z,102342.66
2023-05-05T19:32:26.944Z,102350.53
2023-05-05T19:34:57.081Z,102360.88
2023-05-05T19:37:27.638Z,102364.34
2023-05-05T19:39:57.691Z,102343.34
2023-05-05T19:42:28.767Z,102346.97
2023-05-05T19:44:58.944Z,102322.22
2023-05-05T19:47:29.081Z,102345.75
2023-05-05T19:49:59.339Z,102365.84
2023-05-05T19:52:29.491Z,102343.00
2023-05-05T19:54:59.653Z,102347.38
2023-05-05T19:57:32.670Z,102357.84
2023-05-05T20:00:04.048Z,102351.59
2023-05-05T20:02:43.260Z,102347.13
2023-05-05T20:05:20.237Z,102349.78
2023-05-05T20:07:53.665Z,102356.72
2023-05-05T20:10:31.045Z,102367.16
2023-05-05T20:13:04.918Z,102361.84
2023-05-05T20:15:37.960Z,102345.06
2023-05-05T20:18:13.537Z,102353.88
2023-05-05T20:20:43.737Z,102335.38
2023-05-05T20:23:13.899Z,102368.50
2023-05-05T20:25:44.201Z,102366.75
2023-05-05T20:28:14.317Z,102357.09
2023-05-05T20:30:44.564Z,102346.41
2023-05-05T20:33:14.669Z,102342.03
2023-05-05T20:35:44.795Z,102345.41
2023-05-05T20:38:15.087Z,102349.75
2023-05-05T20:40:45.242Z,102366.31
2023-05-05T20:43:15.397Z,102358.34
2023-05-05T20:45:45.554Z,102346.94
2023-05-05T20:48:15.744Z,102368.06
2023-05-05T20:50:46.092Z,102350.28
2023-05-05T20:53:21.014Z,102355.53
2023-05-05T20:55:51.418Z,102357.28
2023-05-05T20:58:21.563Z,102351.16
2023-05-05T21:00:51.769Z,102337.09
2023-05-05T21:03:22.003Z,102350.28
2023-05-05T21:05:52.195Z,102335.25
2023-05-05T21:08:22.700Z,102335.00
2023-05-05T21:10:52.815Z,102343.75
2023-05-05T21:13:23.332Z,102351.66
2023-05-05T21:15:53.510Z,102363.97
2023-05-05T21:18:25.911Z,102352.41
2023-05-05T21:21:02.785Z,102344.50
2023-05-05T21:23:36.334Z,102351.44
2023-05-05T21:26:10.802Z,102362.75
2023-05-05T21:28:49.606Z,102345.31
2023-05-05T21:31:24.225Z,102350.53
2023-05-05T21:33:58.187Z,102360.25
2023-05-05T21:36:34.055Z,102361.03
2023-05-05T21:39:11.540Z,102362.78
2023-05-05T21:41:47.509Z,102365.28
2023-05-05T21:44:20.489Z,102357.47
2023-05-05T21:46:55.665Z,102356.50
2023-05-05T21:49:25.864Z,102348.69
2023-05-05T21:51:59.018Z,102337.25
2023-05-05T21:54:30.341Z,102342.41
2023-05-05T21:57:03.887Z,102358.06
2023-05-05T21:59:34.687Z,102345.78
2023-05-05T22:02:04.996Z,102324.63
2023-05-05T22:04:35.141Z,102335.16
2023-05-05T22:07:05.318Z,102345.69
2023-05-05T22:09:35.716Z,102330.69
2023-05-05T22:12:06.060Z,102342.94
2023-05-05T22:14:36.191Z,102340.22
2023-05-05T22:17:06.434Z,102357.72
2023-05-05T22:19:36.511Z,102327.91
2023-05-05T22:22:07.170Z,102348.19
2023-05-05T22:24:37.275Z,102349.84
2023-05-05T22:27:07.385Z,102337.63
2023-05-05T22:29:39.054Z,102342.00
2023-05-05T22:32:09.118Z,102346.44
2023-05-05T22:34:39.340Z,102327.22
2023-05-05T22:37:09.656Z,102350.78
2023-05-05T22:39:39.846Z,102355.97
2023-05-05T22:42:10.140Z,102341.19
2023-05-05T22:44:40.244Z,102345.25
2023-05-05T22:47:10.611Z,102357.66
2023-05-05T22:49:41.005Z,102344.41
2023-05-05T22:52:11.287Z,102343.38
2023-05-05T22:54:41.526Z,102361.88
2023-05-05T22:57:12.134Z,102346.00
2023-05-05T22:59:42.186Z,102356.53
2023-05-05T23:02:12.396Z,102348.88
2023-05-05T23:04:45.026Z,102341.84
2023-05-05T23:07:15.708Z,102354.84
2023-05-05T23:09:47.055Z,102361.75
2023-05-05T23:12:17.754Z,102340.78
2023-05-05T23:14:48.624Z,102347.63
2023-05-05T23:17:18.782Z,102356.44
2023-05-05T23:19:49.513Z,102352.91
2023-05-05T23:22:19.613Z,102353.75
2023-05-05T23:24:49.747Z,102355.41
2023-05-05T23:27:19.946Z,102337.06
2023-05-05T23:29:50.262Z,102322.03
2023-05-05T23:32:20.751Z,102325.63
2023-05-05T23:34:50.888Z,102335.25
2023-05-05T23:37:21.831Z,102335.31
2023-05-05T23:39:52.161Z,102330.91
2023-05-05T23:42:22.389Z,102329.03
2023-05-05T23:44:52.458Z,102305.31
2023-05-05T23:47:22.670Z,102326.25
2023-05-05T23:49:52.789Z,102318.31
2023-05-05T23:52:22.908Z,102324.38
2023-05-05T23:54:53.040Z,102318.13
2023-05-05T23:57:23.152Z,102285.63
2023-05-05T23:59:53.257Z,102326.75
